createdAt,value
2019-04-04T00:00:40.609Z,87.50
2019-04-04T00:03:10.010Z,86.80
2019-04-04T00:05:39.628Z,85.90
2019-04-04T00:08:11.981Z,85.20
2019-04-04T00:10:41.779Z,85.30
2019-04-04T00:13:12.427Z,84.90
2019-04-04T00:15:45.596Z,85.00
2019-04-04T00:18:15.258Z,85.70
2019-04-04T00:20:44.644Z,85.50
2019-04-04T00:23:15.290Z,86.40
2019-04-04T00:25:46.773Z,87.10
2019-04-04T00:28:16.224Z,88.20
2019-04-04T00:30:48.503Z,88.60
2019-04-04T00:33:19.278Z,88.50
2019-04-04T00:35:48.960Z,87.70
2019-04-04T00:38:18.365Z,87.00
2019-04-04T00:40:47.615Z,88.50
2019-04-04T00:43:20.864Z,88.60
2019-04-04T00:45:48.822Z,88.90
2019-04-04T00:48:20.246Z,89.00
2019-04-04T00:50:50.094Z,88.90
2019-04-04T00:53:19.945Z,89.30
2019-04-04T00:55:51.881Z,89.40
2019-04-04T00:58:21.455Z,89.60
2019-04-04T01:00:52.966Z,89.50
2019-04-04T01:03:23.389Z,89.90
2019-04-04T01:05:52.639Z,90.00
2019-04-04T01:08:21.811Z,90.10
2019-04-04T01:10:50.737Z,90.10
2019-04-04T01:13:22.947Z,90.20
2019-04-04T01:15:50.280Z,89.80
2019-04-04T01:18:19.349Z,88.70
2019-04-04T01:20:50.438Z,88.10
2019-04-04T01:23:18.791Z,88.50
2019-04-04T01:25:47.820Z,88.50
2019-04-04T01:28:16.787Z,88.70
2019-04-04T01:30:45.689Z,88.10
2019-04-04T01:33:14.603Z,88.80
2019-04-04T01:35:43.477Z,88.10
2019-04-04T01:38:12.436Z,88.90
2019-04-04T01:40:41.633Z,88.70
2019-04-04T01:43:10.504Z,89.40
2019-04-04T01:45:39.380Z,89.10
2019-04-04T01:48:08.459Z,88.90
2019-04-04T01:50:37.438Z,87.40
2019-04-04T01:53:06.546Z,88.50
2019-04-04T01:55:35.820Z,89.30
2019-04-04T01:58:04.697Z,90.10
2019-04-04T02:00:33.580Z,89.80
2019-04-04T02:03:02.554Z,89.50
2019-04-04T02:05:31.483Z,90.20
2019-04-04T02:08:01.018Z,90.00
2019-04-04T02:10:34.588Z,89.70
2019-04-04T02:13:02.574Z,89.30
2019-04-04T02:15:31.463Z,89.60
2019-04-04T02:18:00.397Z,89.60
2019-04-04T02:20:29.299Z,90.00
2019-04-04T02:23:01.127Z,89.90
2019-04-04T02:25:28.709Z,90.40
2019-04-04T02:27:57.695Z,91.00
2019-04-04T02:30:26.596Z,91.40
2019-04-04T02:32:59.544Z,91.30
2019-04-04T02:35:26.081Z,90.90
2019-04-04T02:37:56.072Z,91.10
2019-04-04T02:40:25.414Z,91.10
2019-04-04T02:42:55.387Z,91.40
2019-04-04T02:45:24.656Z,91.40
2019-04-04T02:47:53.563Z,91.60
2019-04-04T02:50:25.175Z,91.50
2019-04-04T02:52:54.052Z,91.40
2019-04-04T02:55:23.001Z,91.20
2019-04-04T02:57:51.911Z,91.10
2019-04-04T03:00:20.797Z,91.10
2019-04-04T03:02:49.729Z,91.30
2019-04-04T03:05:19.338Z,91.30
2019-04-04T03:07:50.367Z,90.70
2019-04-04T03:10:19.311Z,90.80
2019-04-04T03:12:49.148Z,91.00
2019-04-04T03:15:18.036Z,90.90
2019-04-04T03:17:46.949Z,91.20
2019-04-04T03:20:17.338Z,91.70
2019-04-04T03:22:46.842Z,91.60
2019-04-04T03:25:15.786Z,91.40
2019-04-04T03:27:44.828Z,91.40
2019-04-04T03:30:16.660Z,91.50
2019-04-04T03:32:51.979Z,91.10
2019-04-04T03:35:26.056Z,91.10
2019-04-04T03:37:48.478Z,91.30
2019-04-04T03:40:17.367Z,91.80
2019-04-04T03:42:46.414Z,92.30
2019-04-04T03:45:15.314Z,92.50
2019-04-04T03:47:44.877Z,92.50
2019-04-04T03:50:14.118Z,92.20
2019-04-04T03:52:44.340Z,92.10
2019-04-04T03:55:13.570Z,92.20
2019-04-04T03:57:42.566Z,92.10
2019-04-04T04:00:13.004Z,92.10
2019-04-04T04:02:41.898Z,92.00
2019-04-04T04:05:16.526Z,91.90
2019-04-04T04:07:45.820Z,92.10
2019-04-04T04:10:16.059Z,92.10
2019-04-04T04:12:45.002Z,92.00
2019-04-04T04:15:13.878Z,92.10
2019-04-04T04:17:45.680Z,91.80
2019-04-04T04:20:13.438Z,91.90
2019-04-04T04:22:42.329Z,91.90
2019-04-04T04:25:11.396Z,92.00
2019-04-04T04:27:40.342Z,91.90
2019-04-04T04:30:09.832Z,92.10
2019-04-04T04:32:38.716Z,92.40
2019-04-04T04:35:08.983Z,92.50
2019-04-04T04:37:40.039Z,92.80
2019-04-04T04:40:13.911Z,92.50
2019-04-04T04:42:39.784Z,92.50
2019-04-04T04:45:11.370Z,92.70
2019-04-04T04:47:39.282Z,92.90
2019-04-04T04:50:09.547Z,93.00
2019-04-04T04:52:38.862Z,93.10
2019-04-04T04:55:07.874Z,93.20
2019-04-04T04:57:37.289Z,93.30
2019-04-04T05:00:07.634Z,93.30
2019-04-04T05:02:36.513Z,93.20
2019-04-04T05:05:07.144Z,93.30
2019-04-04T05:07:38.485Z,93.30
2019-04-04T05:10:08.470Z,93.00
2019-04-04T05:12:37.515Z,92.80
2019-04-04T05:15:08.336Z,92.80
2019-04-04T05:17:37.319Z,92.70
2019-04-04T05:20:08.455Z,92.80
2019-04-04T05:22:39.724Z,93.10
2019-04-04T05:25:08.992Z,92.90
2019-04-04T05:27:38.569Z,93.20
2019-04-04T05:30:08.438Z,93.10
2019-04-04T05:32:37.821Z,93.10
2019-04-04T05:35:07.600Z,92.90
2019-04-04T05:37:38.246Z,92.90
2019-04-04T05:40:09.383Z,92.20
2019-04-04T05:42:38.306Z,91.80
2019-04-04T05:45:08.184Z,91.80
2019-04-04T05:47:38.816Z,92.30
2019-04-04T05:50:10.899Z,91.90
2019-04-04T05:52:39.058Z,91.90
2019-04-04T05:55:09.909Z,92.00
2019-04-04T05:57:38.967Z,92.00
2019-04-04T06:00:10.205Z,92.10
2019-04-04T06:02:39.132Z,92.00
2019-04-04T06:05:08.340Z,91.80
2019-04-04T06:07:37.278Z,92.00
2019-04-04T06:10:08.001Z,91.80
2019-04-04T06:12:38.128Z,91.80
2019-04-04T06:15:08.100Z,92.20
2019-04-04T06:17:39.155Z,92.10
2019-04-04T06:20:08.580Z,92.20
2019-04-04T06:22:37.456Z,92.10
2019-04-04T06:25:07.391Z,92.00
2019-04-04T06:27:39.833Z,92.20
2019-04-04T06:30:08.220Z,92.30
2019-04-04T06:32:38.810Z,92.20
2019-04-04T06:35:07.838Z,92.20
2019-04-04T06:37:38.588Z,91.80
2019-04-04T06:40:09.099Z,91.90
2019-04-04T06:42:38.036Z,92.20
2019-04-04T06:45:07.521Z,91.70
2019-04-04T06:47:36.487Z,92.00
2019-04-04T06:50:08.542Z,91.60
2019-04-04T06:52:37.580Z,91.50
2019-04-04T06:55:07.270Z,91.70
2019-04-04T06:57:36.570Z,91.70
2019-04-04T07:00:08.758Z,91.90
2019-04-04T07:02:37.625Z,92.00
2019-04-04T07:05:10.527Z,91.60
2019-04-04T07:07:38.775Z,91.50
2019-04-04T07:10:08.370Z,91.20
2019-04-04T07:12:38.750Z,91.50
2019-04-04T07:15:12.557Z,91.40
2019-04-04T07:17:41.161Z,91.60
2019-04-04T07:20:10.580Z,92.10
2019-04-04T07:22:39.457Z,92.10
2019-04-04T07:25:09.442Z,92.10
2019-04-04T07:27:38.668Z,92.30
2019-04-04T07:30:08.610Z,92.50
2019-04-04T07:32:40.861Z,92.20
2019-04-04T07:35:08.173Z,92.40
2019-04-04T07:37:37.165Z,92.00
2019-04-04T07:40:06.874Z,92.30
2019-04-04T07:42:35.835Z,92.60
2019-04-04T07:45:06.605Z,92.40
2019-04-04T07:47:35.620Z,92.40
2019-04-04T07:50:05.903Z,93.00
2019-04-04T07:52:34.790Z,92.40
2019-04-04T07:55:03.685Z,92.50
2019-04-04T07:57:32.881Z,92.40
2019-04-04T08:00:01.734Z,92.70
2019-04-04T08:02:30.613Z,92.60
2019-04-04T08:04:59.541Z,92.60
2019-04-04T08:07:28.465Z,92.80
2019-04-04T08:09:57.345Z,92.50
2019-04-04T08:12:26.252Z,92.10
2019-04-04T08:14:55.309Z,92.20
2019-04-04T08:17:24.450Z,92.50
2019-04-04T08:19:59.656Z,92.00
2019-04-04T08:22:26.373Z,92.10
2019-04-04T08:24:55.263Z,92.00
2019-04-04T08:27:24.144Z,92.00
2019-04-04T08:29:53.097Z,91.90
2019-04-04T08:32:22.038Z,92.00
2019-04-04T08:34:50.911Z,91.90
2019-04-04T08:37:19.838Z,92.00
2019-04-04T08:39:48.722Z,92.00
2019-04-04T08:42:17.598Z,91.80
2019-04-04T08:44:46.521Z,91.80
2019-04-04T08:47:15.421Z,91.80
2019-04-04T08:49:44.316Z,91.70
2019-04-04T08:52:16.773Z,91.80
2019-04-04T08:54:43.767Z,92.10
2019-04-04T08:57:12.657Z,92.10
2019-04-04T08:59:41.601Z,92.10
2019-04-04T09:02:10.466Z,92.30
2019-04-04T09:04:39.360Z,92.20
2019-04-04T09:07:08.308Z,92.30
2019-04-04T09:09:37.223Z,92.40
2019-04-04T09:12:06.290Z,92.10
2019-04-04T09:14:35.221Z,92.10
2019-04-04T09:17:04.147Z,92.40
2019-04-04T09:19:33.016Z,92.50
2019-04-04T09:22:01.924Z,92.10
2019-04-04T09:24:30.857Z,92.10
2019-04-04T09:27:00.139Z,92.20
2019-04-04T09:29:29.005Z,92.40
2019-04-04T09:31:57.989Z,92.40
2019-04-04T09:34:26.918Z,92.10
2019-04-04T09:36:55.914Z,92.50
2019-04-04T09:39:24.871Z,92.30
2019-04-04T09:41:53.768Z,91.80
2019-04-04T09:44:22.698Z,91.90
2019-04-04T09:47:04.623Z,91.80
2019-04-04T09:49:23.017Z,91.80
2019-04-04T09:51:51.887Z,92.00
2019-04-04T09:54:21.088Z,92.40
2019-04-04T09:56:49.984Z,91.70
2019-04-04T09:59:18.903Z,91.80
2019-04-04T10:01:47.804Z,91.70
2019-04-04T10:04:16.687Z,92.10
2019-04-04T10:06:45.571Z,92.00
2019-04-04T10:09:16.254Z,91.90
2019-04-04T10:11:45.366Z,92.00
2019-04-04T10:14:14.238Z,91.90
2019-04-04T10:16:43.355Z,91.80
2019-04-04T10:19:12.227Z,92.10
2019-04-04T10:21:41.118Z,92.30
2019-04-04T10:24:10.083Z,91.10
2019-04-04T10:26:39.066Z,90.90
2019-04-04T10:29:07.948Z,90.90
2019-04-04T10:31:36.896Z,91.00
2019-04-04T10:34:07.239Z,91.00
2019-04-04T10:36:36.114Z,91.30
2019-04-04T10:39:07.972Z,91.50
2019-04-04T10:41:36.919Z,91.90
2019-04-04T10:44:05.873Z,92.20
2019-04-04T10:46:34.812Z,92.00
2019-04-04T10:49:03.825Z,92.20
2019-04-04T10:51:32.682Z,91.70
2019-04-04T10:54:01.733Z,92.00
2019-04-04T10:56:31.876Z,91.70
2019-04-04T10:59:00.784Z,91.80
2019-04-04T11:01:29.708Z,91.50
2019-04-04T11:03:58.638Z,91.20
2019-04-04T11:06:27.536Z,90.30
2019-04-04T11:08:56.634Z,90.50
2019-04-04T11:11:25.590Z,90.70
2019-04-04T11:13:54.457Z,90.70
2019-04-04T11:16:30.043Z,90.60
2019-04-04T11:18:54.043Z,91.10
2019-04-04T11:21:23.006Z,91.00
2019-04-04T11:23:52.669Z,90.30
2019-04-04T11:26:21.609Z,91.00
2019-04-04T11:28:50.507Z,89.30
2019-04-04T11:31:19.430Z,91.20
2019-04-04T11:33:48.347Z,90.10
2019-04-04T11:36:17.315Z,90.80
2019-04-04T11:38:46.272Z,88.80
2019-04-04T11:41:15.163Z,90.00
2019-04-04T11:43:44.108Z,88.60
2019-04-04T11:46:13.046Z,90.40
2019-04-04T11:48:41.937Z,87.70
2019-04-04T11:51:10.827Z,86.60
2019-04-04T11:53:39.757Z,87.10
2019-04-04T11:56:08.626Z,90.00
2019-04-04T11:58:37.555Z,89.90
2019-04-04T12:01:13.812Z,87.60
2019-04-04T12:03:42.712Z,87.30
2019-04-04T12:06:11.644Z,86.30
2019-04-04T12:08:40.650Z,87.00
2019-04-04T12:11:09.528Z,88.10
2019-04-04T12:13:38.416Z,88.10
2019-04-04T12:16:07.427Z,88.50
2019-04-04T12:18:36.424Z,87.50
2019-04-04T12:21:05.318Z,88.20
2019-04-04T12:23:34.257Z,90.30
2019-04-04T12:26:22.888Z,87.10
2019-04-04T12:28:51.894Z,86.20
2019-04-04T12:31:20.772Z,87.20
2019-04-04T12:33:49.721Z,87.70
2019-04-04T12:36:24.569Z,88.00
2019-04-04T12:38:49.203Z,85.50
2019-04-04T12:41:18.095Z,89.20
2019-04-04T12:43:47.046Z,85.90
2019-04-04T12:46:16.343Z,86.10
2019-04-04T12:48:45.238Z,85.60
2019-04-04T12:51:14.159Z,88.20
2019-04-04T12:53:43.054Z,88.40
2019-04-04T12:56:12.006Z,83.40
2019-04-04T12:58:40.933Z,80.40
2019-04-04T13:01:09.830Z,81.10
2019-04-04T13:03:38.716Z,80.70
2019-04-04T13:06:07.664Z,80.20
2019-04-04T13:08:36.553Z,83.10
2019-04-04T13:11:05.524Z,81.00
2019-04-04T13:13:34.542Z,83.20
2019-04-04T13:16:03.392Z,85.00
2019-04-04T13:18:32.285Z,84.00
2019-04-04T13:21:01.222Z,86.50
2019-04-04T13:23:30.163Z,88.30
2019-04-04T13:25:59.057Z,89.10
2019-04-04T13:28:27.997Z,87.10
2019-04-04T13:30:56.880Z,88.90
2019-04-04T13:33:25.767Z,88.00
2019-04-04T13:35:54.714Z,86.50
2019-04-04T13:38:23.643Z,86.20
2019-04-04T13:40:52.546Z,86.30
2019-04-04T13:43:22.673Z,85.80
2019-04-04T13:45:52.273Z,85.80
2019-04-04T13:48:21.197Z,86.50
2019-04-04T13:50:50.156Z,86.10
2019-04-04T13:53:20.768Z,86.40
2019-04-04T13:55:50.106Z,86.00
2019-04-04T13:58:21.974Z,85.40
2019-04-04T14:00:49.614Z,86.60
2019-04-04T14:03:18.875Z,86.30
2019-04-04T14:05:48.187Z,85.90
2019-04-04T14:08:17.161Z,86.30
2019-04-04T14:10:57.522Z,87.90
2019-04-04T14:13:16.637Z,84.50
2019-04-04T14:15:45.546Z,85.10
2019-04-04T14:18:24.053Z,85.30
2019-04-04T14:21:03.266Z,87.00
2019-04-04T14:23:25.727Z,86.60
2019-04-04T14:25:55.481Z,84.80
2019-04-04T14:28:28.133Z,86.10
2019-04-04T14:30:55.426Z,85.50
2019-04-04T14:33:24.306Z,85.80
2019-04-04T14:35:53.304Z,87.50
2019-04-04T14:38:22.180Z,85.40
2019-04-04T14:40:51.060Z,85.40
2019-04-04T14:43:20.025Z,86.20
2019-04-04T14:45:48.892Z,84.00
2019-04-04T14:48:17.763Z,84.40
2019-04-04T14:50:46.732Z,83.50
2019-04-04T14:53:15.932Z,83.90
2019-04-04T14:55:44.855Z,81.80
2019-04-04T14:58:13.794Z,81.90
2019-04-04T15:00:42.682Z,80.70
2019-04-04T15:03:11.554Z,80.50
2019-04-04T15:05:40.495Z,80.30
2019-04-04T15:08:09.381Z,80.40
2019-04-04T15:10:39.048Z,80.80
2019-04-04T15:13:08.242Z,83.60
2019-04-04T15:15:37.135Z,82.50
2019-04-04T15:18:06.017Z,83.90
2019-04-04T15:20:35.937Z,79.90
2019-04-04T15:23:04.837Z,80.60
2019-04-04T15:25:33.713Z,83.30
2019-04-04T15:28:02.634Z,84.70
2019-04-04T15:30:31.569Z,82.80
2019-04-04T15:33:02.566Z,82.30
2019-04-04T15:35:31.029Z,80.20
2019-04-04T15:38:00.026Z,80.40
2019-04-04T15:40:28.915Z,81.40
2019-04-04T15:42:58.822Z,82.40
2019-04-04T15:45:27.699Z,82.80
2019-04-04T15:47:56.600Z,79.30
2019-04-04T15:50:25.575Z,81.30
2019-04-04T15:52:54.485Z,78.50
2019-04-04T15:55:23.489Z,79.70
2019-04-04T15:57:52.431Z,78.90
2019-04-04T16:00:21.508Z,79.20
2019-04-04T16:02:50.393Z,79.50
2019-04-04T16:05:19.328Z,77.50
2019-04-04T16:07:48.230Z,78.10
2019-04-04T16:10:17.210Z,78.30
2019-04-04T16:12:46.188Z,78.10
2019-04-04T16:15:15.076Z,78.20
2019-04-04T16:17:43.959Z,82.00
2019-04-04T16:20:13.123Z,77.80
2019-04-04T16:22:42.011Z,78.40
2019-04-04T16:25:11.096Z,78.80
2019-04-04T16:27:41.187Z,78.90
2019-04-04T16:30:13.559Z,82.10
2019-04-04T16:32:43.622Z,79.60
2019-04-04T16:35:12.746Z,79.90
2019-04-04T16:37:43.773Z,82.80
2019-04-04T16:40:13.988Z,79.00
2019-04-04T16:42:47.179Z,80.40
2019-04-04T16:45:17.024Z,82.80
2019-04-04T16:47:46.799Z,81.90
2019-04-04T16:50:18.562Z,82.20
2019-04-04T16:52:49.159Z,80.80
2019-04-04T16:55:18.495Z,82.10
2019-04-04T16:57:48.484Z,80.90
2019-04-04T17:00:21.059Z,82.10
2019-04-04T17:02:50.974Z,80.30
2019-04-04T17:05:20.806Z,81.80
2019-04-04T17:07:50.812Z,80.00
2019-04-04T17:10:20.924Z,81.50
2019-04-04T17:12:50.253Z,82.30
2019-04-04T17:15:19.166Z,80.10
2019-04-04T17:17:49.064Z,81.40
2019-04-04T17:20:20.684Z,81.80
2019-04-04T17:22:49.465Z,81.40
2019-04-04T17:25:18.366Z,82.00
2019-04-04T17:27:47.565Z,82.50
2019-04-04T17:30:16.765Z,82.70
2019-04-04T17:32:48.458Z,82.40
2019-04-04T17:35:16.678Z,83.20
2019-04-04T17:37:45.902Z,82.90
2019-04-04T17:40:15.038Z,82.10
2019-04-04T17:42:44.037Z,82.30
2019-04-04T17:45:13.906Z,83.30
2019-04-04T17:47:44.597Z,81.90
2019-04-04T17:50:18.761Z,82.00
2019-04-04T17:52:46.965Z,82.90
2019-04-04T17:55:16.061Z,83.30
2019-04-04T17:57:45.499Z,84.30
2019-04-04T18:00:17.758Z,83.30
2019-04-04T18:02:46.753Z,83.30
2019-04-04T18:05:16.553Z,84.00
2019-04-04T18:07:48.317Z,83.90
2019-04-04T18:10:17.463Z,84.10
2019-04-04T18:12:46.359Z,84.20
2019-04-04T18:15:18.425Z,84.00
2019-04-04T18:17:47.510Z,84.90
2019-04-04T18:20:17.215Z,85.30
2019-04-04T18:22:46.157Z,85.80
2019-04-04T18:25:15.417Z,86.00
2019-04-04T18:28:00.381Z,86.10
2019-04-04T18:30:33.516Z,86.30
2019-04-04T18:33:03.535Z,86.20
2019-04-04T18:35:34.615Z,86.50
2019-04-04T18:38:05.666Z,86.70
2019-04-04T18:40:35.847Z,87.40
2019-04-04T18:43:08.346Z,87.20
2019-04-04T18:45:37.815Z,87.70
2019-04-04T18:48:07.290Z,88.10
2019-04-04T18:50:37.171Z,88.40
2019-04-04T18:53:07.116Z,88.70
2019-04-04T18:55:40.499Z,89.10
2019-04-04T18:58:10.384Z,88.90
2019-04-04T19:00:40.192Z,88.80
2019-04-04T19:03:10.094Z,88.50
2019-04-04T19:05:41.988Z,87.90
2019-04-04T19:08:11.848Z,86.40
2019-04-04T19:10:43.310Z,85.90
2019-04-04T19:13:12.367Z,86.50
2019-04-04T19:15:42.693Z,86.10
2019-04-04T19:18:18.385Z,86.10
2019-04-04T19:20:43.869Z,86.00
2019-04-04T19:23:13.428Z,86.10
2019-04-04T19:25:44.868Z,86.50
2019-04-04T19:28:14.808Z,86.40
2019-04-04T19:30:44.885Z,86.70
2019-04-04T19:33:14.788Z,86.20
2019-04-04T19:35:44.449Z,86.30
2019-04-04T19:38:15.332Z,85.90
2019-04-04T19:40:46.696Z,86.00
2019-04-04T19:43:18.245Z,86.30
2019-04-04T19:45:46.944Z,86.10
2019-04-04T19:48:16.106Z,86.20
2019-04-04T19:50:48.038Z,86.50
2019-04-04T19:53:17.090Z,86.80
2019-04-04T19:55:48.078Z,87.00
2019-04-04T19:58:17.235Z,86.90
2019-04-04T20:00:46.121Z,87.00
2019-04-04T20:03:15.111Z,87.10
2019-04-04T20:05:45.472Z,87.50
2019-04-04T20:08:16.959Z,87.10
2019-04-04T20:10:46.654Z,87.20
2019-04-04T20:13:16.029Z,87.70
2019-04-04T20:15:47.127Z,87.50
2019-04-04T20:18:16.396Z,87.80
2019-04-04T20:20:45.468Z,87.90
2019-04-04T20:23:15.682Z,87.60
2019-04-04T20:28:40.629Z,87.70
2019-04-04T20:31:51.893Z,87.70
2019-04-04T20:34:00.942Z,87.20
2019-04-04T20:36:20.277Z,87.50
2019-04-04T20:38:51.746Z,87.40
2019-04-04T20:41:21.612Z,87.40
2019-04-04T20:43:51.955Z,87.00
2019-04-04T20:46:21.028Z,87.60
2019-04-04T20:48:49.991Z,87.80
2019-04-04T20:51:19.217Z,87.30
2019-04-04T20:53:51.921Z,87.30
2019-04-04T20:56:20.916Z,87.60
2019-04-04T20:58:51.397Z,86.80
2019-04-04T21:01:21.012Z,86.70
2019-04-04T21:03:49.948Z,86.80
2019-04-04T21:06:20.824Z,87.40
2019-04-04T21:08:49.881Z,87.20
2019-04-04T21:11:18.856Z,86.80
2019-04-04T21:13:56.159Z,87.00
2019-04-04T21:16:18.513Z,87.30
2019-04-04T21:18:47.533Z,87.60
2019-04-04T21:21:16.482Z,87.00
2019-04-04T21:23:45.371Z,87.40
2019-04-04T21:26:14.868Z,87.60
2019-04-04T21:28:44.758Z,87.50
2019-04-04T21:31:17.412Z,87.90
2019-04-04T21:33:46.899Z,87.50
2019-04-04T21:36:20.114Z,87.60
2019-04-04T21:38:51.202Z,87.70
2019-04-04T21:41:20.741Z,87.60
2019-04-04T21:43:50.393Z,87.80
2019-04-04T21:46:22.888Z,87.40
2019-04-04T21:48:52.775Z,88.00
2019-04-04T21:51:22.104Z,88.10
2019-04-04T21:53:52.700Z,88.60
2019-04-04T21:56:22.553Z,87.60
2019-04-04T21:58:52.928Z,88.30
2019-04-04T22:01:23.862Z,88.00
2019-04-04T22:03:53.613Z,88.20
2019-04-04T22:06:23.841Z,88.20
2019-04-04T22:08:53.792Z,88.30
2019-04-04T22:11:24.186Z,88.60
2019-04-04T22:13:55.524Z,88.40
2019-04-04T22:16:26.071Z,88.40
2019-04-04T22:18:57.594Z,89.00
2019-04-04T22:21:27.938Z,89.10
2019-04-04T22:23:57.423Z,89.50
2019-04-04T22:26:27.247Z,89.50
2019-04-04T22:28:58.264Z,89.70
2019-04-04T22:31:29.718Z,89.80
2019-04-04T22:33:58.619Z,90.00
2019-04-04T22:36:28.474Z,89.60
2019-04-04T22:38:58.085Z,89.40
2019-04-04T22:41:28.965Z,89.60
2019-04-04T22:44:03.621Z,89.50
2019-04-04T22:46:30.086Z,89.80
2019-04-04T22:49:02.702Z,90.00
2019-04-04T22:51:33.440Z,90.00
2019-04-04T22:54:03.555Z,90.10
2019-04-04T22:56:33.171Z,90.10
2019-04-04T22:59:02.921Z,90.30
2019-04-04T23:01:32.647Z,90.30
2019-04-04T23:04:02.445Z,90.40
2019-04-04T23:06:32.500Z,90.30
2019-04-04T23:09:03.042Z,90.40
2019-04-04T23:11:33.263Z,90.70
2019-04-04T23:14:03.179Z,90.50
2019-04-04T23:16:32.999Z,90.50
2019-04-04T23:19:03.109Z,90.80
2019-04-04T23:21:32.022Z,90.70
2019-04-04T23:24:00.891Z,90.80
2019-04-04T23:26:29.783Z,90.90
2019-04-04T23:28:58.880Z,91.00
2019-04-04T23:31:27.770Z,91.10
2019-04-04T23:33:56.666Z,91.20
2019-04-04T23:36:34.805Z,91.20
2019-04-04T23:38:56.158Z,91.20
2019-04-04T23:41:25.387Z,91.20
2019-04-04T23:43:54.278Z,91.10
2019-04-04T23:46:23.222Z,91.10
2019-04-04T23:48:52.303Z,91.20
2019-04-04T23:51:21.184Z,91.20
2019-04-04T23:53:50.706Z,91.30
2019-04-04T23:56:19.592Z,91.10
2019-04-04T23:58:48.789Z,91.10
